Time;durP1;ratioP1;P1;durP2;ratioP2;P2;SDS_P1;SDS_P2;PMS_P1;PMS_P2;Temp;Humidity;BMP_temperature;BMP_pressure;BME280_temperature;BME280_humidity;BME280_pressure;Samples;Min_cycle;Max_cycle;Signal;HPM_P1;HPM_P2
2022/04/05 00:03:16;;;;;;;22.85;18.90;;;;;;;;;;10345335;28;20289;-69
2022/04/05 00:08:18;;;;;;;22.38;18.45;;;;;;;;;;10311946;28;20058;-69
2022/04/05 00:13:22;;;;;;;25.13;20.55;;;;;;;;;;10317357;28;20051;-69
2022/04/05 00:18:25;;;;;;;22.85;18.95;;;;;;;;;;10352071;28;20285;-69
2022/04/05 00:23:27;;;;;;;22.05;17.60;;;;;;;;;;10350865;28;20054;-68
2022/04/05 00:28:31;;;;;;;22.35;18.17;;;;;;;;;;10337806;28;20046;-69
2022/04/05 00:33:33;;;;;;;21.92;18.17;;;;;;;;;;10347734;28;20053;-69
2022/04/05 00:38:35;;;;;;;20.73;17.60;;;;;;;;;;10309940;28;20049;-69
2022/04/05 00:43:40;;;;;;;18.83;16.73;;;;;;;;;;10310089;28;20334;-69
2022/04/05 00:48:49;;;;;;;18.67;15.93;;;;;;;;;;10326800;28;20038;-69
2022/04/05 00:53:52;;;;;;;17.77;15.10;;;;;;;;;;10328833;28;20059;-69
2022/04/05 00:58:59;;;;;;;20.52;16.35;;;;;;;;;;10310517;28;20242;-69
2022/04/05 01:04:04;;;;;;;19.88;16.13;;;;;;;;;;10320208;28;20289;-69
2022/04/05 01:09:09;;;;;;;18.77;16.75;;;;;;;;;;10314829;28;20043;-68
2022/04/05 01:14:12;;;;;;;23.27;17.80;;;;;;;;;;10350623;28;20049;-69
2022/04/05 01:19:15;;;;;;;20.42;17.23;;;;;;;;;;10316579;28;20113;-69
2022/04/05 01:24:18;;;;;;;19.58;17.25;;;;;;;;;;10316271;28;20109;-68
2022/04/05 01:29:23;;;;;;;19.58;17.48;;;;;;;;;;10317950;28;20238;-69
2022/04/05 01:34:27;;;;;;;20.33;16.85;;;;;;;;;;10317073;28;20051;-68
2022/04/05 01:39:33;;;;;;;18.52;16.55;;;;;;;;;;10330681;28;20049;-69
2022/04/05 01:44:38;;;;;;;17.70;15.27;;;;;;;;;;10357782;28;20053;-69
2022/04/05 01:49:43;;;;;;;17.40;15.13;;;;;;;;;;10321372;28;20051;-69
2022/04/05 01:54:47;;;;;;;16.10;14.40;;;;;;;;;;10337410;28;20269;-68
2022/04/05 01:59:49;;;;;;;16.08;14.38;;;;;;;;;;10334269;28;20050;-69
2022/04/05 02:04:52;;;;;;;18.52;15.88;;;;;;;;;;10329657;28;20278;-68
2022/04/05 02:09:56;;;;;;;16.90;15.10;;;;;;;;;;10315978;28;20035;-68
2022/04/05 02:14:58;;;;;;;16.33;14.63;;;;;;;;;;10315856;28;20346;-69
2022/04/05 02:20:01;;;;;;;17.05;14.68;;;;;;;;;;10315917;28;20055;-69
2022/04/05 02:25:05;;;;;;;15.13;11.95;;;;;;;;;;10331042;28;20093;-69
2022/04/05 02:30:08;;;;;;;12.90;11.68;;;;;;;;;;10354861;28;20050;-69
2022/04/05 02:35:11;;;;;;;14.98;13.43;;;;;;;;;;10330809;28;20047;-69
2022/04/05 02:40:14;;;;;;;15.73;14.10;;;;;;;;;;10333568;28;20062;-69
2022/04/05 02:45:16;;;;;;;17.63;14.13;;;;;;;;;;10331303;28;20365;-69
2022/04/05 02:50:19;;;;;;;15.10;13.48;;;;;;;;;;10313696;28;20050;-68
2022/04/05 02:55:23;;;;;;;12.88;11.57;;;;;;;;;;10308389;28;20097;-68
2022/04/05 03:00:27;;;;;;;12.70;10.98;;;;;;;;;;10353462;28;20081;-70
2022/04/05 03:05:30;;;;;;;10.07;8.82;;;;;;;;;;10349290;28;20062;-69
2022/04/05 03:10:34;;;;;;;13.23;8.80;;;;;;;;;;10313943;28;20050;-69
2022/04/05 03:15:36;;;;;;;9.20;7.35;;;;;;;;;;10335332;28;20047;-69
2022/04/05 03:20:39;;;;;;;7.60;6.90;;;;;;;;;;10355491;28;20051;-69
2022/04/05 03:25:42;;;;;;;8.70;6.60;;;;;;;;;;10327572;28;20047;-68
2022/04/05 03:30:47;;;;;;;7.32;6.10;;;;;;;;;;10337679;28;20042;-70
2022/04/05 03:35:49;;;;;;;8.55;7.55;;;;;;;;;;10344983;28;20058;-68
2022/04/05 03:40:53;;;;;;;16.42;14.77;;;;;;;;;;10319729;28;20249;-69
2022/04/05 03:45:55;;;;;;;24.90;21.65;;;;;;;;;;10335746;28;20050;-68
2022/04/05 03:50:57;;;;;;;26.05;20.25;;;;;;;;;;10312528;28;20286;-69
2022/04/05 03:56:02;;;;;;;30.63;25.80;;;;;;;;;;10319415;28;20058;-69
2022/04/05 04:01:04;;;;;;;28.42;23.52;;;;;;;;;;10332871;28;20357;-69
2022/04/05 04:06:07;;;;;;;19.05;16.80;;;;;;;;;;10320154;28;20069;-69
2022/04/05 04:11:11;;;;;;;24.23;20.20;;;;;;;;;;10334176;28;20043;-69
2022/04/05 04:16:13;;;;;;;17.65;13.40;;;;;;;;;;10312305;28;20058;-69
2022/04/05 04:21:16;;;;;;;31.17;26.95;;;;;;;;;;10315311;28;20397;-70
2022/04/05 04:26:19;;;;;;;30.35;26.38;;;;;;;;;;10311272;28;20043;-69
2022/04/05 04:31:22;;;;;;;28.42;23.77;;;;;;;;;;10313054;28;20042;-69
2022/04/05 04:36:24;;;;;;;24.13;21.05;;;;;;;;;;10345575;28;20055;-70
2022/04/05 04:41:28;;;;;;;20.27;14.38;;;;;;;;;;10311340;28;20361;-69
2022/04/05 04:46:30;;;;;;;17.55;15.50;;;;;;;;;;10319132;28;20050;-69
2022/04/05 04:51:33;;;;;;;18.63;16.35;;;;;;;;;;10346835;28;20074;-69
2022/04/05 04:56:36;;;;;;;18.42;16.50;;;;;;;;;;10310128;28;20047;-69
2022/04/05 05:01:39;;;;;;;15.02;11.27;;;;;;;;;;10313276;28;20054;-69
2022/04/05 05:06:42;;;;;;;13.07;9.30;;;;;;;;;;10342872;28;20046;-68
2022/04/05 05:11:46;;;;;;;8.15;4.93;;;;;;;;;;10318465;28;20338;-68
2022/04/05 05:16:48;;;;;;;7.93;2.40;;;;;;;;;;10319968;28;20050;-69
2022/04/05 05:21:50;;;;;;;11.60;4.50;;;;;;;;;;10318052;28;20054;-69
2022/04/05 05:26:54;;;;;;;11.68;3.10;;;;;;;;;;10325875;28;20050;-69
2022/04/05 05:31:56;;;;;;;12.20;2.55;;;;;;;;;;10336876;28;20046;-70
2022/04/05 05:36:58;;;;;;;11.73;2.25;;;;;;;;;;10343614;28;20050;-70
2022/04/05 05:42:02;;;;;;;13.65;2.95;;;;;;;;;;10350865;28;20266;-70
2022/04/05 05:47:05;;;;;;;5.17;1.97;;;;;;;;;;10345026;28;20326;-69
2022/04/05 05:52:08;;;;;;;7.60;1.70;;;;;;;;;;10316025;28;20137;-70
2022/04/05 05:57:11;;;;;;;8.23;2.22;;;;;;;;;;10328071;28;20330;-69
2022/04/05 06:02:14;;;;;;;8.87;2.30;;;;;;;;;;10315138;28;20242;-70
2022/04/05 06:07:18;;;;;;;15.70;2.93;;;;;;;;;;10316466;28;20070;-69
2022/04/05 06:12:22;;;;;;;9.32;2.88;;;;;;;;;;10319599;28;20066;-67
2022/04/05 06:17:24;;;;;;;9.38;2.10;;;;;;;;;;10316670;28;20043;-67
2022/04/05 06:22:26;;;;;;;8.63;2.20;;;;;;;;;;10341295;28;20054;-66
2022/04/05 06:27:30;;;;;;;7.63;1.92;;;;;;;;;;10347687;28;20039;-69
2022/04/05 06:32:33;;;;;;;7.43;3.15;;;;;;;;;;10340148;28;20053;-67
2022/04/05 06:37:35;;;;;;;6.30;2.65;;;;;;;;;;10313746;28;20093;-67
2022/04/05 06:42:43;;;;;;;9.38;2.92;;;;;;;;;;10339925;28;20047;-67
2022/04/05 06:47:45;;;;;;;11.20;3.47;;;;;;;;;;10321511;28;20065;-67
2022/04/05 06:52:47;;;;;;;7.90;2.33;;;;;;;;;;10348354;28;20055;-69
2022/04/05 06:57:52;;;;;;;5.35;2.30;;;;;;;;;;10313680;28;20058;-67
2022/04/05 07:02:57;;;;;;;14.48;3.50;;;;;;;;;;10320125;28;20337;-68
2022/04/05 07:07:59;;;;;;;9.82;2.55;;;;;;;;;;10346483;28;20376;-70
2022/04/05 07:13:03;;;;;;;6.15;2.33;;;;;;;;;;10351862;28;20046;-68
2022/04/05 07:18:06;;;;;;;7.57;2.55;;;;;;;;;;10312752;28;20262;-69
2022/04/05 07:23:08;;;;;;;9.68;3.63;;;;;;;;;;10318129;28;20057;-68
2022/04/05 07:28:12;;;;;;;12.00;2.70;;;;;;;;;;10327125;28;20102;-69
2022/04/05 07:33:14;;;;;;;13.15;2.30;;;;;;;;;;10313290;28;20253;-68
2022/04/05 07:38:17;;;;;;;7.70;2.33;;;;;;;;;;10322021;28;20054;-69
2022/04/05 07:43:23;;;;;;;7.35;2.40;;;;;;;;;;10353403;28;20046;-68
2022/04/05 07:48:28;;;;;;;11.43;2.67;;;;;;;;;;10345993;28;20050;-69
2022/04/05 07:53:31;;;;;;;8.88;2.60;;;;;;;;;;10331188;28;20058;-68
2022/04/05 07:58:35;;;;;;;9.82;2.15;;;;;;;;;;10352114;28;20325;-68
2022/04/05 08:03:38;;;;;;;9.07;2.63;;;;;;;;;;10321793;28;20074;-67
2022/04/05 08:08:40;;;;;;;8.20;2.95;;;;;;;;;;10336649;28;20049;-68
2022/04/05 08:13:44;;;;;;;8.18;2.22;;;;;;;;;;10312651;28;20085;-68
2022/04/05 08:18:46;;;;;;;13.43;2.70;;;;;;;;;;10310141;28;20249;-72
2022/04/05 08:23:50;;;;;;;4.88;2.13;;;;;;;;;;10311136;28;20093;-69
2022/04/05 08:28:55;;;;;;;8.43;2.90;;;;;;;;;;10312579;28;20053;-70
2022/04/05 08:34:00;;;;;;;8.85;4.15;;;;;;;;;;10349873;28;20050;-68
2022/04/05 08:39:03;;;;;;;11.23;2.80;;;;;;;;;;10327370;28;20051;-69
2022/04/05 08:44:08;;;;;;;8.20;3.17;;;;;;;;;;10313303;28;20292;-71
2022/04/05 08:49:10;;;;;;;;;;;;;;;;;;10317977;28;20050;-67
2022/04/05 08:54:13;;;;;;;3.40;1.70;;;;;;;;;;10331148;28;19925;-68
2022/04/05 08:59:17;;;;;;;9.38;2.80;;;;;;;;;;10348943;28;20046;-69
2022/04/05 09:04:19;;;;;;;7.47;2.58;;;;;;;;;;10334231;28;20059;-68
2022/04/05 09:09:28;;;;;;;10.77;5.07;;;;;;;;;;10308961;28;20042;-67
2022/04/05 09:14:32;;;;;;;7.25;2.63;;;;;;;;;;10338931;28;20366;-67
2022/04/05 09:19:38;;;;;;;11.98;3.65;;;;;;;;;;10330179;28;20054;-72
2022/04/05 09:24:43;;;;;;;9.00;2.95;;;;;;;;;;10320190;28;20054;-73
2022/04/05 09:29:51;;;;;;;6.07;3.67;;;;;;;;;;10326909;28;20340;-71
2022/04/05 09:34:54;;;;;;;6.00;2.97;;;;;;;;;;10321400;28;20306;-72
2022/04/05 09:40:15;;;;;;;6.65;2.67;;;;;;;;;;10310100;28;20361;-72
2022/04/05 09:45:41;;;;;;;4.78;1.92;;;;;;;;;;10335771;28;20246;-72
2022/04/05 09:51:06;;;;;;;6.75;1.92;;;;;;;;;;10348892;28;20053;-72
2022/04/05 09:56:11;;;;;;;5.55;2.25;;;;;;;;;;10284423;28;20073;-72
2022/04/05 10:01:14;;;;;;;;;;;;;;;;;;10326606;28;20042;-72
2022/04/05 10:06:17;;;;;;;7.53;2.30;;;;;;;;;;10341167;28;19918;-71
2022/04/05 10:11:20;;;;;;;6.97;2.45;;;;;;;;;;10342180;28;20050;-72
2022/04/05 10:16:26;;;;;;;5.65;2.10;;;;;;;;;;10331824;28;20062;-71
2022/04/05 10:21:31;;;;;;;5.97;2.15;;;;;;;;;;10332164;28;20177;-70
2022/04/05 10:26:35;;;;;;;5.32;2.50;;;;;;;;;;10328077;28;20311;-72
2022/04/05 10:31:51;;;;;;;11.38;3.30;;;;;;;;;;10332774;28;20050;-71
2022/04/05 10:37:12;;;;;;;7.30;2.42;;;;;;;;;;10359313;28;20050;-68
2022/04/05 10:42:20;;;;;;;6.55;2.42;;;;;;;;;;10345532;28;20103;-67
2022/04/05 10:47:24;;;;;;;6.38;2.40;;;;;;;;;;10313646;28;20073;-69
2022/04/05 10:52:31;;;;;;;7.67;2.37;;;;;;;;;;10327147;28;20050;-68
2022/04/05 10:57:35;;;;;;;10.45;2.42;;;;;;;;;;10334172;28;20311;-68
2022/04/05 11:02:41;;;;;;;9.70;3.67;;;;;;;;;;10328066;28;20330;-67
2022/04/05 11:08:04;;;;;;;10.70;3.55;;;;;;;;;;10299431;28;20051;-69
2022/04/05 11:13:09;;;;;;;14.40;3.70;;;;;;;;;;10325378;28;20291;-69
2022/04/05 11:18:15;;;;;;;15.73;5.65;;;;;;;;;;10312480;28;20042;-68
2022/04/05 11:23:18;;;;;;;8.70;2.30;;;;;;;;;;10350277;28;20210;-68
2022/04/05 11:28:22;;;;;;;7.53;2.80;;;;;;;;;;10330533;28;20063;-67
2022/04/05 11:33:41;;;;;;;6.50;2.23;;;;;;;;;;10315697;28;20047;-67
2022/04/05 11:38:48;;;;;;;8.93;3.17;;;;;;;;;;10325244;28;20588;-67
2022/04/05 11:43:53;;;;;;;9.93;3.08;;;;;;;;;;10330539;28;20152;-67
2022/04/05 11:48:58;;;;;;;8.32;2.58;;;;;;;;;;10330123;28;20042;-68
2022/04/05 11:54:06;;;;;;;6.10;2.75;;;;;;;;;;10335247;28;20191;-66
2022/04/05 11:59:10;;;;;;;12.50;3.22;;;;;;;;;;10300976;28;20042;-67
2022/04/05 12:04:16;;;;;;;10.65;3.33;;;;;;;;;;10308840;28;20065;-67
2022/04/05 12:09:21;;;;;;;9.07;2.83;;;;;;;;;;10343047;28;20045;-67
2022/04/05 12:14:24;;;;;;;8.30;3.23;;;;;;;;;;10320475;28;20057;-66
2022/04/05 12:19:29;;;;;;;6.57;2.53;;;;;;;;;;10309874;28;20321;-67
2022/04/05 12:24:32;;;;;;;;;;;;;;;;;;10311551;28;20101;-67
2022/04/05 12:29:39;;;;;;;7.97;2.45;;;;;;;;;;10310698;28;19918;-67
2022/04/05 12:34:43;;;;;;;5.68;2.30;;;;;;;;;;10324019;28;20053;-66
2022/04/05 12:39:48;;;;;;;11.83;3.90;;;;;;;;;;10337818;28;20042;-67
2022/04/05 12:44:57;;;;;;;13.13;5.50;;;;;;;;;;10315724;28;20066;-67
2022/04/05 12:50:02;;;;;;;13.32;2.95;;;;;;;;;;10318142;28;20157;-67
2022/04/05 12:55:06;;;;;;;11.43;3.90;;;;;;;;;;10349815;28;20055;-67
2022/04/05 13:00:14;;;;;;;5.07;2.50;;;;;;;;;;10347293;28;20384;-66
2022/04/05 13:10:42;;;;;;;12.67;4.13;;;;;;;;;;10344858;28;20084;-66
2022/04/05 13:15:45;;;;;;;11.95;3.85;;;;;;;;;;10310709;28;20038;-66
2022/04/05 13:21:00;;;;;;;9.30;2.60;;;;;;;;;;10330808;28;20046;-66
2022/04/05 13:26:03;;;;;;;;;;;;;;;;;;10320166;28;20110;-67
2022/04/05 13:31:11;;;;;;;9.55;3.45;;;;;;;;;;10343558;28;19918;-68
2022/04/05 13:36:15;;;;;;;8.40;4.30;;;;;;;;;;10358117;28;20049;-67
2022/04/05 13:41:17;;;;;;;11.55;3.38;;;;;;;;;;10358145;28;20054;-68
2022/04/05 13:46:19;;;;;;;10.55;3.28;;;;;;;;;;10353191;28;20062;-66
2022/04/05 13:51:24;;;;;;;9.45;3.70;;;;;;;;;;10357877;28;20050;-67
2022/04/05 13:56:26;;;;;;;11.55;3.00;;;;;;;;;;10321592;28;20262;-68
2022/04/05 14:01:28;;;;;;;9.98;2.75;;;;;;;;;;10343399;28;20337;-67
2022/04/05 14:06:33;;;;;;;12.05;3.38;;;;;;;;;;10345129;28;20074;-67
2022/04/05 14:11:36;;;;;;;11.40;4.45;;;;;;;;;;10356683;28;20042;-69
2022/04/05 14:16:39;;;;;;;7.78;2.65;;;;;;;;;;10351220;28;20058;-69
2022/04/05 14:21:42;;;;;;;26.77;4.60;;;;;;;;;;10340797;28;20053;-67
2022/04/05 14:26:45;;;;;;;18.80;3.97;;;;;;;;;;10327829;28;20285;-68
2022/04/05 14:31:47;;;;;;;16.58;4.88;;;;;;;;;;10314365;28;20338;-68
2022/04/05 14:36:51;;;;;;;12.57;3.65;;;;;;;;;;10303293;28;20054;-67
2022/04/05 14:41:53;;;;;;;15.77;8.88;;;;;;;;;;10309663;28;20046;-67
2022/04/05 14:46:58;;;;;;;17.40;7.95;;;;;;;;;;10345425;28;20081;-67
2022/04/05 14:52:01;;;;;;;;;;;;;;;;;;10340882;28;20282;-67
2022/04/05 14:57:05;;;;;;;20.58;5.38;;;;;;;;;;10352712;28;19924;-67
2022/04/05 15:02:07;;;;;;;10.35;5.05;;;;;;;;;;10353543;28;20064;-70
2022/04/05 15:07:12;;;;;;;20.42;6.55;;;;;;;;;;10325532;28;20113;-66
2022/04/05 15:12:15;;;;;;;7.95;2.75;;;;;;;;;;10315984;28;20043;-68
2022/04/05 15:17:19;;;;;;;15.48;4.47;;;;;;;;;;10313942;28;20053;-69
2022/04/05 15:22:23;;;;;;;9.57;2.92;;;;;;;;;;10311661;28;20042;-68
2022/04/05 15:27:25;;;;;;;9.25;4.00;;;;;;;;;;10315222;28;20275;-67
2022/04/05 15:32:28;;;;;;;26.63;5.10;;;;;;;;;;10334144;28;20042;-69
2022/04/05 15:37:32;;;;;;;15.45;4.68;;;;;;;;;;10312131;28;20062;-68
2022/04/05 15:42:36;;;;;;;10.88;3.55;;;;;;;;;;10310922;28;20287;-67
2022/04/05 15:47:39;;;;;;;6.40;3.60;;;;;;;;;;10294061;28;20074;-67
2022/04/05 15:52:43;;;;;;;11.48;3.80;;;;;;;;;;10320632;28;20034;-67
2022/04/05 15:57:46;;;;;;;14.70;3.70;;;;;;;;;;10350581;28;20038;-68
2022/04/05 16:02:49;;;;;;;8.98;3.78;;;;;;;;;;10349973;28;20065;-68
2022/04/05 16:07:53;;;;;;;11.32;4.55;;;;;;;;;;10320166;28;20054;-68
2022/04/05 16:12:55;;;;;;;10.25;3.83;;;;;;;;;;10317129;28;20050;-67
2022/04/05 16:17:58;;;;;;;9.82;3.58;;;;;;;;;;10350319;28;20054;-71
2022/04/05 16:23:03;;;;;;;12.02;4.68;;;;;;;;;;10338149;28;20050;-67
2022/04/05 16:28:06;;;;;;;11.37;4.90;;;;;;;;;;10325555;28;20046;-69
2022/04/05 16:33:09;;;;;;;16.63;4.93;;;;;;;;;;10349941;28;20625;-69
2022/04/05 16:38:13;;;;;;;10.23;3.97;;;;;;;;;;10334042;28;20078;-67
2022/04/05 16:43:15;;;;;;;13.77;5.07;;;;;;;;;;10321505;28;20073;-68
2022/04/05 16:48:17;;;;;;;6.63;3.28;;;;;;;;;;10347938;28;20269;-69
2022/04/05 16:53:22;;;;;;;7.57;3.25;;;;;;;;;;10344000;28;20050;-68
2022/04/05 16:58:24;;;;;;;12.27;4.13;;;;;;;;;;10336528;28;20373;-68
2022/04/05 17:03:27;;;;;;;10.68;5.40;;;;;;;;;;10330590;28;20271;-68
2022/04/05 17:08:31;;;;;;;18.40;6.00;;;;;;;;;;10319070;28;20059;-68
2022/04/05 17:13:33;;;;;;;15.93;5.55;;;;;;;;;;10322559;28;20046;-67
2022/04/05 17:18:36;;;;;;;15.85;7.00;;;;;;;;;;10353621;28;20047;-68
2022/04/05 17:23:40;;;;;;;14.13;6.80;;;;;;;;;;10347748;28;20223;-67
2022/04/05 17:28:42;;;;;;;12.52;5.30;;;;;;;;;;10337797;28;20142;-70
2022/04/05 17:33:46;;;;;;;11.15;5.10;;;;;;;;;;10340804;28;20050;-67
2022/04/05 17:38:51;;;;;;;16.63;7.47;;;;;;;;;;10339601;28;20057;-67
2022/04/05 17:43:56;;;;;;;18.67;7.47;;;;;;;;;;10355866;28;20054;-67
2022/04/05 17:48:58;;;;;;;17.10;7.90;;;;;;;;;;10353542;28;20038;-68
2022/04/05 17:54:03;;;;;;;13.85;6.50;;;;;;;;;;10355194;28;20351;-69
2022/04/05 17:59:07;;;;;;;10.75;5.38;;;;;;;;;;10354338;28;20047;-68
2022/04/05 18:04:11;;;;;;;12.20;5.72;;;;;;;;;;10337246;28;20078;-68
2022/04/05 18:09:15;;;;;;;13.35;6.28;;;;;;;;;;10348980;28;20141;-67
2022/04/05 18:14:17;;;;;;;17.40;7.85;;;;;;;;;;10345340;28;20337;-69
2022/04/05 18:19:20;;;;;;;19.48;8.50;;;;;;;;;;10342581;28;20049;-68
2022/04/05 18:24:24;;;;;;;29.52;10.93;;;;;;;;;;10351214;28;20042;-69
2022/04/05 18:29:27;;;;;;;20.77;8.93;;;;;;;;;;10354364;28;20234;-68
2022/04/05 18:34:29;;;;;;;21.83;9.48;;;;;;;;;;10345431;28;20054;-69
2022/04/05 18:39:33;;;;;;;22.98;8.98;;;;;;;;;;10345780;28;20276;-68
2022/04/05 18:44:37;;;;;;;25.38;8.90;;;;;;;;;;10315499;28;20051;-68
2022/04/05 18:49:39;;;;;;;26.10;9.35;;;;;;;;;;10343076;28;20145;-68
2022/04/05 18:54:44;;;;;;;23.02;9.63;;;;;;;;;;10341644;28;20050;-67
2022/04/05 18:59:46;;;;;;;30.75;9.38;;;;;;;;;;10351158;28;20117;-68
2022/04/05 19:04:50;;;;;;;18.63;7.75;;;;;;;;;;10338371;28;20054;-67
2022/04/05 19:09:53;;;;;;;18.15;7.60;;;;;;;;;;10317699;28;20050;-68
2022/04/05 19:14:57;;;;;;;13.90;5.95;;;;;;;;;;10327527;28;20054;-67
2022/04/05 19:20:06;;;;;;;19.05;7.18;;;;;;;;;;10340433;28;20397;-68
2022/04/05 19:25:13;;;;;;;16.55;6.57;;;;;;;;;;10313886;28;20259;-67
2022/04/05 19:30:16;;;;;;;17.90;8.07;;;;;;;;;;10324961;28;20190;-68
2022/04/05 19:35:18;;;;;;;18.65;8.52;;;;;;;;;;10315720;28;21014;-69
2022/04/05 19:40:22;;;;;;;18.67;7.60;;;;;;;;;;10351310;28;20093;-68
2022/04/05 19:45:24;;;;;;;21.90;6.78;;;;;;;;;;10353874;28;20269;-68
2022/04/05 19:50:27;;;;;;;13.95;6.25;;;;;;;;;;10348314;28;20043;-69
2022/04/05 19:55:31;;;;;;;17.83;6.10;;;;;;;;;;10334847;28;20360;-68
2022/04/05 20:00:34;;;;;;;16.90;7.43;;;;;;;;;;10313686;28;20222;-69
2022/04/05 20:05:38;;;;;;;20.85;8.40;;;;;;;;;;10315881;28;20062;-67
2022/04/05 20:10:42;;;;;;;15.30;6.35;;;;;;;;;;10311162;28;20039;-69
2022/04/05 20:15:48;;;;;;;12.55;6.00;;;;;;;;;;10352365;28;20065;-66
2022/04/05 20:20:52;;;;;;;;;;;;;;;;;;10339370;28;20282;-67
2022/04/05 20:25:56;;;;;;;13.95;6.22;;;;;;;;;;10343443;28;19925;-68
2022/04/05 20:30:59;;;;;;;18.42;6.18;;;;;;;;;;10311010;28;20050;-67
2022/04/05 20:36:02;;;;;;;14.40;6.30;;;;;;;;;;10321097;28;20271;-66
2022/04/05 20:41:07;;;;;;;18.52;9.18;;;;;;;;;;10332295;28;20046;-68
2022/04/05 20:46:09;;;;;;;18.43;8.03;;;;;;;;;;10345628;28;20050;-68
2022/04/05 20:51:15;;;;;;;16.95;7.82;;;;;;;;;;10317056;28;20050;-69
2022/04/05 20:56:19;;;;;;;17.08;8.95;;;;;;;;;;10343184;28;20053;-68
2022/04/05 21:01:22;;;;;;;19.08;9.32;;;;;;;;;;10308726;28;20312;-68
2022/04/05 21:06:28;;;;;;;22.15;12.00;;;;;;;;;;10321412;28;20172;-67
2022/04/05 21:11:32;;;;;;;32.00;15.80;;;;;;;;;;10352200;28;20342;-66
2022/04/05 21:16:36;;;;;;;18.77;13.95;;;;;;;;;;10349866;28;20093;-66
2022/04/05 21:21:38;;;;;;;26.33;18.60;;;;;;;;;;10337752;28;20257;-66
2022/04/05 21:26:42;;;;;;;28.88;15.13;;;;;;;;;;10341844;28;20051;-67
2022/04/05 21:31:44;;;;;;;32.00;15.30;;;;;;;;;;10309264;28;20169;-68
2022/04/05 21:36:47;;;;;;;33.60;18.92;;;;;;;;;;10324894;28;20046;-66
2022/04/05 21:41:50;;;;;;;36.40;22.48;;;;;;;;;;10320056;28;20219;-67
2022/04/05 21:46:53;;;;;;;27.08;17.75;;;;;;;;;;10316044;28;20066;-66
2022/04/05 21:51:56;;;;;;;28.73;16.10;;;;;;;;;;10315761;28;20381;-66
2022/04/05 21:57:00;;;;;;;23.60;11.10;;;;;;;;;;10316017;28;20054;-66
2022/04/05 22:02:02;;;;;;;22.27;9.77;;;;;;;;;;10315677;28;20046;-67
2022/04/05 22:07:06;;;;;;;17.02;11.55;;;;;;;;;;10338038;28;20074;-67
2022/04/05 22:12:11;;;;;;;16.95;11.25;;;;;;;;;;10323241;28;20057;-67
2022/04/05 22:17:13;;;;;;;20.93;15.77;;;;;;;;;;10316507;28;20082;-67
2022/04/05 22:22:15;;;;;;;23.38;18.88;;;;;;;;;;10315786;28;20065;-66
2022/04/05 22:27:19;;;;;;;18.50;9.35;;;;;;;;;;10336869;28;20046;-67
2022/04/05 22:32:21;;;;;;;22.75;11.60;;;;;;;;;;10355523;28;20054;-67
2022/04/05 22:37:23;;;;;;;15.15;7.90;;;;;;;;;;10326984;28;20157;-66
2022/04/05 22:42:27;;;;;;;20.00;9.40;;;;;;;;;;10338379;28;20081;-66
2022/04/05 22:47:29;;;;;;;28.55;12.68;;;;;;;;;;10343525;28;20090;-66
2022/04/05 22:52:32;;;;;;;30.38;12.65;;;;;;;;;;10314447;28;20211;-66
2022/04/05 22:57:36;;;;;;;27.38;12.68;;;;;;;;;;10316703;28;20038;-67
2022/04/05 23:02:38;;;;;;;24.40;13.80;;;;;;;;;;10327789;28;20085;-67
2022/04/05 23:07:42;;;;;;;17.15;10.68;;;;;;;;;;10312761;28;20070;-67
2022/04/05 23:12:45;;;;;;;13.95;8.38;;;;;;;;;;10312925;28;20065;-67
2022/04/05 23:17:48;;;;;;;12.93;8.32;;;;;;;;;;10312655;28;20066;-67
2022/04/05 23:22:50;;;;;;;14.75;8.27;;;;;;;;;;10312598;28;20134;-66
2022/04/05 23:27:53;;;;;;;13.70;8.63;;;;;;;;;;10312920;28;20047;-67
2022/04/05 23:32:56;;;;;;;16.30;8.82;;;;;;;;;;10330750;28;20042;-66
2022/04/05 23:37:58;;;;;;;12.15;7.85;;;;;;;;;;10352275;28;20046;-67
2022/04/05 23:43:02;;;;;;;13.60;6.97;;;;;;;;;;10345318;28;20177;-67
2022/04/05 23:48:05;;;;;;;12.32;7.95;;;;;;;;;;10338251;28;20070;-67
2022/04/05 23:53:08;;;;;;;11.68;7.57;;;;;;;;;;10352073;28;20049;-67
2022/04/05 23:58:12;;;;;;;18.33;9.70;;;;;;;;;;10318506;28;20078;-68
